Time;durP1;ratioP1;P1;durP2;ratioP2;P2;SDS_P1;SDS_P2;PMS_P1;PMS_P2;Temp;Humidity;BMP_temperature;BMP_pressure;BME280_temperature;BME280_humidity;BME280_pressure;Samples;Min_cycle;Max_cycle;Signal;HPM_P1;HPM_P2
2023/10/12 00:02:00;;;;;;;;;4.50;2.25;;;;;;;;5144476;27;9488;-80
2023/10/12 00:04:26;;;;;;;;;4.50;1.00;;;;;;;;5128313;27;9639;-82
2023/10/12 00:06:51;;;;;;;;;4.00;3.00;;;;;;;;5122918;28;10318;-82
2023/10/12 00:09:17;;;;;;;;;2.25;2.25;;;;;;;;5124142;28;8984;-81
2023/10/12 00:11:48;;;;;;;;;6.25;3.00;;;;;;;;5126840;28;8786;-79
2023/10/12 00:14:14;;;;;;;;;2.33;2.00;;;;;;;;5123512;28;8785;-80
2023/10/12 00:16:42;;;;;;;;;5.75;4.25;;;;;;;;5140956;27;9453;-80
2023/10/12 00:19:11;;;;;;;;;5.00;3.00;;;;;;;;5142960;27;9729;-80
2023/10/12 00:21:36;;;;;;;;;4.00;3.00;;;;;;;;5143092;27;9403;-81
2023/10/12 00:24:02;;;;;;;;;5.50;2.00;;;;;;;;5135488;27;9420;-82
2023/10/12 00:26:31;;;;;;;;;2.75;2.00;;;;;;;;5123374;27;8803;-79
2023/10/12 00:28:56;;;;;;;;;4.00;3.00;;;;;;;;5122266;28;8848;-81
2023/10/12 00:31:21;;;;;;;;;4.25;2.00;;;;;;;;5123177;28;9806;-82
2023/10/12 00:33:49;;;;;;;;;3.00;3.00;;;;;;;;5123939;28;8845;-81
2023/10/12 00:36:21;;;;;;;;;3.00;3.00;;;;;;;;5123294;28;8825;-80
2023/10/12 00:38:48;;;;;;;;;3.50;3.50;;;;;;;;5122305;28;9430;-80
2023/10/12 00:41:17;;;;;;;;;5.00;3.67;;;;;;;;5122855;27;9508;-80
2023/10/12 00:44:13;;;;;;;;;2.50;2.25;;;;;;;;5131000;27;9394;-80
2023/10/12 00:51:51;;;;;;;;;2.25;2.00;;;;;;;;5143938;27;9803;-80
2023/10/12 00:57:03;;;;;;;;;4.75;4.75;;;;;;;;5143788;27;9888;-79
2023/10/12 00:59:38;;;;;;;;;3.25;3.25;;;;;;;;5143536;27;9789;-80
2023/10/12 01:02:15;;;;;;;;;5.25;4.75;;;;;;;;5137828;27;8779;-80
2023/10/12 01:04:41;;;;;;;;;3.50;3.25;;;;;;;;5122986;28;9493;-82
2023/10/12 01:07:06;;;;;;;;;3.25;3.25;;;;;;;;5141557;27;9973;-80
2023/10/12 01:09:43;;;;;;;;;3.00;3.00;;;;;;;;5143955;27;11460;-80
2023/10/12 01:12:14;;;;;;;;;3.00;3.00;;;;;;;;5129348;27;8765;-80
2023/10/12 01:14:44;;;;;;;;;6.50;4.00;;;;;;;;5123166;27;9811;-80
2023/10/12 01:17:24;;;;;;;;;6.00;5.00;;;;;;;;5121938;28;10113;-79
2023/10/12 01:19:51;;;;;;;;;5.00;4.50;;;;;;;;5129242;27;9812;-80
2023/10/12 01:22:25;;;;;;;;;7.50;4.25;;;;;;;;5144046;27;9766;-80
2023/10/12 01:27:16;;;;;;;;;4.00;4.00;;;;;;;;5143955;27;9791;-80
2023/10/12 01:29:42;;;;;;;;;4.00;2.67;;;;;;;;5142576;27;8808;-80
2023/10/12 01:34:36;;;;;;;;;6.50;5.00;;;;;;;;5123692;28;9608;-82
2023/10/12 01:37:03;;;;;;;;;6.25;5.00;;;;;;;;5123621;28;8720;-82
2023/10/12 01:39:28;;;;;;;;;5.75;3.00;;;;;;;;5138742;27;9769;-82
2023/10/12 01:41:55;;;;;;;;;4.25;3.75;;;;;;;;5123116;28;9819;-82
2023/10/12 01:44:21;;;;;;;;;8.50;6.50;;;;;;;;5122271;28;8723;-82
2023/10/12 01:46:49;;;;;;;;;3.50;3.50;;;;;;;;5122848;27;9849;-81
2023/10/12 01:49:14;;;;;;;;;6.33;4.00;;;;;;;;5139865;27;8802;-82
2023/10/12 01:51:44;;;;;;;;;4.50;3.50;;;;;;;;5143560;27;10243;-80
2023/10/12 01:54:12;;;;;;;;;2.75;2.00;;;;;;;;5142276;27;8779;-80
2023/10/12 01:56:37;;;;;;;;;6.50;4.50;;;;;;;;5143560;27;9712;-80
2023/10/12 01:59:07;;;;;;;;;6.00;3.00;;;;;;;;5143931;27;9813;-80
2023/10/12 02:01:41;;;;;;;;;5.25;3.00;;;;;;;;5144452;27;8968;-80
2023/10/12 02:04:07;;;;;;;;;7.00;4.00;;;;;;;;5134979;27;9512;-80
2023/10/12 02:06:32;;;;;;;;;5.25;3.25;;;;;;;;5126459;28;9819;-80
2023/10/12 02:09:10;;;;;;;;;5.33;3.00;;;;;;;;5126562;28;8815;-79
2023/10/12 02:11:53;;;;;;;;;4.25;3.25;;;;;;;;5126805;28;8728;-80
2023/10/12 02:14:27;;;;;;;;;4.00;3.00;;;;;;;;5126334;28;9575;-81
2023/10/12 02:16:55;;;;;;;;;5.25;3.50;;;;;;;;5124640;28;10067;-81
2023/10/12 02:19:31;;;;;;;;;6.50;3.25;;;;;;;;5126630;28;9745;-82
2023/10/12 02:22:00;;;;;;;;;3.00;3.00;;;;;;;;5124523;28;9687;-82
2023/10/12 02:24:26;;;;;;;;;4.00;3.50;;;;;;;;5135543;27;9686;-82
2023/10/12 02:26:52;;;;;;;;;5.50;3.50;;;;;;;;5145418;27;10757;-82
2023/10/12 02:29:18;;;;;;;;;4.00;3.75;;;;;;;;5145833;27;8780;-82
2023/10/12 02:31:56;;;;;;;;;5.00;4.50;;;;;;;;5146249;27;9601;-82
2023/10/12 02:34:29;;;;;;;;;6.25;4.50;;;;;;;;5145810;27;10715;-82
2023/10/12 02:39:43;;;;;;;;;5.25;2.50;;;;;;;;5146885;27;9965;-82
2023/10/12 02:44:35;;;;;;;;;6.00;4.75;;;;;;;;5125682;28;9742;-82
2023/10/12 02:47:12;;;;;;;;;4.00;4.00;;;;;;;;5125540;28;9936;-81
2023/10/12 02:49:39;;;;;;;;;6.00;6.00;;;;;;;;5144346;27;8789;-82
2023/10/12 02:52:14;;;;;;;;;4.75;4.75;;;;;;;;5146012;27;9815;-80
2023/10/12 02:54:52;;;;;;;;;9.00;4.75;;;;;;;;5145424;27;9720;-82
2023/10/12 02:57:31;;;;;;;;;6.50;3.75;;;;;;;;5131531;27;9981;-82
2023/10/12 03:02:51;;;;;;;;;3.25;3.25;;;;;;;;5061422;28;9865;-81
2023/10/12 03:05:31;;;;;;;;;7.25;6.00;;;;;;;;5045246;28;9682;-82
2023/10/12 03:08:05;;;;;;;;;8.00;3.75;;;;;;;;5062016;28;10075;-82
2023/10/12 03:10:30;;;;;;;;;5.00;4.50;;;;;;;;5062645;28;9651;-82
2023/10/12 03:12:55;;;;;;;;;6.75;4.75;;;;;;;;5060783;28;10005;-82
2023/10/12 03:15:47;;;;;;;;;3.25;3.25;;;;;;;;5079092;28;8838;-82
2023/10/12 03:18:13;;;;;;;;;9.25;5.75;;;;;;;;5078473;28;10367;-82
2023/10/12 03:20:38;;;;;;;;;8.50;3.75;;;;;;;;5061656;28;9970;-82
2023/10/12 03:23:13;;;;;;;;;4.75;4.00;;;;;;;;5050822;28;8909;-82
2023/10/12 03:25:51;;;;;;;;;3.75;3.75;;;;;;;;5042147;28;8810;-82
2023/10/12 03:28:43;;;;;;;;;4.75;3.00;;;;;;;;5024952;28;10200;-82
2023/10/12 03:31:24;;;;;;;;;4.33;4.00;;;;;;;;5041873;28;9934;-82
2023/10/12 03:33:54;;;;;;;;;6.00;5.00;;;;;;;;5058486;28;9512;-82
2023/10/12 03:36:25;;;;;;;;;7.00;5.00;;;;;;;;5061693;28;9773;-81
2023/10/12 03:41:54;;;;;;;;;7.25;6.00;;;;;;;;5104579;28;9573;-82
2023/10/12 03:52:20;;;;;;;;;3.50;3.50;;;;;;;;5141481;27;9701;-82
2023/10/12 03:57:45;;;;;;;;;8.00;4.50;;;;;;;;5124547;28;10586;-82
2023/10/12 04:02:42;;;;;;;;;8.25;6.00;;;;;;;;5124095;28;9626;-82
2023/10/12 04:11:20;;;;;;;;;8.50;3.00;;;;;;;;5124767;28;10053;-82
2023/10/12 04:21:18;;;;;;;;;8.00;7.00;;;;;;;;5124446;28;9835;-81
2023/10/12 04:28:58;;;;;;;;;8.25;5.50;;;;;;;;5145257;27;9877;-82
2023/10/12 04:34:08;;;;;;;;;4.33;4.33;;;;;;;;5144931;27;9700;-81
2023/10/12 04:36:44;;;;;;;;;5.25;5.25;;;;;;;;5144585;27;9504;-82
2023/10/12 04:41:52;;;;;;;;;5.00;5.00;;;;;;;;5120399;27;10058;-81
2023/10/12 04:47:05;;;;;;;;;10.00;6.25;;;;;;;;5143056;27;9855;-81
2023/10/12 04:54:49;;;;;;;;;5.75;4.75;;;;;;;;5144521;27;8833;-82
2023/10/12 04:57:15;;;;;;;;;9.25;6.25;;;;;;;;5144782;27;9733;-82
2023/10/12 04:59:50;;;;;;;;;7.25;5.25;;;;;;;;5144155;27;9773;-82
2023/10/12 05:02:23;;;;;;;;;6.00;5.00;;;;;;;;5143600;27;8725;-81
2023/10/12 05:05:14;;;;;;;;;5.75;5.75;;;;;;;;5136979;27;10027;-82
2023/10/12 05:07:53;;;;;;;;;8.00;5.25;;;;;;;;5143965;27;10913;-81
2023/10/12 05:10:26;;;;;;;;;8.50;7.00;;;;;;;;5127625;27;9813;-79
2023/10/12 05:12:51;;;;;;;;;6.50;4.25;;;;;;;;5122927;28;10149;-80
2023/10/12 05:15:20;;;;;;;;;6.00;3.00;;;;;;;;5126073;28;9981;-77
2023/10/12 05:17:45;;;;;;;;;8.25;5.50;;;;;;;;5123974;28;8740;-77
2023/10/12 05:20:10;;;;;;;;;11.25;8.25;;;;;;;;5139244;27;9797;-80
2023/10/12 05:22:36;;;;;;;;;5.75;5.00;;;;;;;;5140308;27;9983;-80
2023/10/12 05:25:01;;;;;;;;;8.25;5.75;;;;;;;;5134597;27;8831;-80
2023/10/12 05:27:29;;;;;;;;;5.00;5.00;;;;;;;;5132158;27;8895;-80
2023/10/12 05:29:59;;;;;;;;;7.00;5.75;;;;;;;;5124168;27;8840;-80
2023/10/12 05:32:36;;;;;;;;;7.75;4.75;;;;;;;;5122720;28;9984;-80
2023/10/12 05:35:06;;;;;;;;;5.75;3.75;;;;;;;;5123474;27;10036;-80
2023/10/12 05:37:48;;;;;;;;;6.00;6.00;;;;;;;;5122252;27;9896;-80
2023/10/12 05:40:14;;;;;;;;;4.75;4.00;;;;;;;;5122821;27;10048;-81
2023/10/12 05:42:40;;;;;;;;;11.00;7.50;;;;;;;;5122114;27;9814;-87
2023/10/12 05:45:22;;;;;;;;;7.00;5.50;;;;;;;;5126419;27;10041;-85
2023/10/12 05:47:52;;;;;;;;;10.00;8.00;;;;;;;;5119765;28;8791;-83
2023/10/12 05:50:23;;;;;;;;;7.25;6.75;;;;;;;;5123541;27;9837;-79
2023/10/12 05:52:51;;;;;;;;;6.00;4.75;;;;;;;;5127951;27;10270;-82
2023/10/12 05:55:23;;;;;;;;;9.25;7.00;;;;;;;;5130152;27;10869;-79
2023/10/12 05:57:51;;;;;;;;;9.00;6.75;;;;;;;;5110541;27;10122;-80
2023/10/12 06:00:35;;;;;;;;;9.00;5.00;;;;;;;;5119881;27;9901;-79
2023/10/12 06:03:00;;;;;;;;;6.50;6.00;;;;;;;;5116012;28;10099;-81
2023/10/12 06:05:25;;;;;;;;;7.50;5.75;;;;;;;;5120657;28;9961;-81
2023/10/12 06:08:00;;;;;;;;;9.00;7.50;;;;;;;;5121558;28;8772;-81
2023/10/12 06:10:27;;;;;;;;;6.00;5.00;;;;;;;;5122227;28;8724;-80
2023/10/12 06:12:52;;;;;;;;;7.50;6.50;;;;;;;;5121413;28;10246;-79
2023/10/12 06:15:24;;;;;;;;;9.75;8.00;;;;;;;;5121588;28;9918;-80
2023/10/12 06:17:51;;;;;;;;;7.25;6.75;;;;;;;;5137461;27;8774;-79
2023/10/12 06:20:29;;;;;;;;;11.25;8.00;;;;;;;;5121685;27;9976;-79
2023/10/12 06:22:55;;;;;;;;;6.00;5.25;;;;;;;;5121674;28;10168;-80
2023/10/12 06:25:21;;;;;;;;;6.50;6.00;;;;;;;;5120002;28;10845;-79
2023/10/12 06:27:48;;;;;;;;;9.25;7.50;;;;;;;;5119314;28;8865;-79
2023/10/12 06:30:17;;;;;;;;;11.75;9.25;;;;;;;;5119538;28;9864;-79
2023/10/12 06:32:42;;;;;;;;;16.75;13.25;;;;;;;;5119324;28;10270;-81
2023/10/12 06:43:52;;;;;;;;;20.00;13.50;;;;;;;;5120969;27;10469;-82
2023/10/12 06:45:38;;;;;;;;;15.25;12.75;;;;;;;;5121369;28;10483;-81
2023/10/12 06:48:22;;;;;;;;;23.75;15.75;;;;;;;;5121590;28;10499;-81
2023/10/12 06:50:53;;;;;;;;;18.25;15.00;;;;;;;;5125667;27;10681;-82
2023/10/12 06:53:22;;;;;;;;;16.50;14.25;;;;;;;;5103810;28;10790;-79
2023/10/12 06:55:57;;;;;;;;;18.75;13.75;;;;;;;;5120148;28;10596;-79
2023/10/12 06:58:36;;;;;;;;;20.00;14.75;;;;;;;;5123344;27;10585;-79
2023/10/12 07:01:18;;;;;;;;;21.50;15.00;;;;;;;;5124655;28;10505;-79
2023/10/12 07:03:47;;;;;;;;;19.75;15.75;;;;;;;;5121963;28;10554;-78
2023/10/12 07:06:14;;;;;;;;;15.25;15.25;;;;;;;;5124373;28;10477;-79
2023/10/12 07:08:42;;;;;;;;;18.25;15.00;;;;;;;;5123163;28;10526;-78
2023/10/12 07:11:08;;;;;;;;;18.75;15.75;;;;;;;;5124617;27;10419;-78
2023/10/12 07:13:39;;;;;;;;;17.25;13.50;;;;;;;;5123645;27;10579;-77
2023/10/12 07:16:06;;;;;;;;;16.50;14.50;;;;;;;;5133386;27;8852;-77
2023/10/12 07:18:34;;;;;;;;;17.75;15.25;;;;;;;;5145221;27;10466;-80
2023/10/12 07:20:59;;;;;;;;;17.75;14.00;;;;;;;;5143925;27;10424;-80
2023/10/12 07:23:35;;;;;;;;;17.25;17.25;;;;;;;;5145199;27;10608;-77
2023/10/12 07:26:01;;;;;;;;;17.25;15.25;;;;;;;;5145113;27;8784;-79
2023/10/12 07:28:39;;;;;;;;;22.00;16.50;;;;;;;;5143545;27;10448;-79
2023/10/12 07:31:23;;;;;;;;;17.25;14.50;;;;;;;;5130387;27;11507;-82
2023/10/12 07:36:35;;;;;;;;;17.75;16.00;;;;;;;;5124030;27;10549;-82
2023/10/12 07:41:53;;;;;;;;;17.50;15.50;;;;;;;;5104393;27;10306;-78
2023/10/12 07:44:20;;;;;;;;;20.50;17.50;;;;;;;;5144258;27;10670;-78
2023/10/12 07:46:45;;;;;;;;;22.25;18.50;;;;;;;;5144557;27;10711;-78
2023/10/12 07:52:02;;;;;;;;;15.50;14.75;;;;;;;;5121142;28;8881;-79
2023/10/12 07:57:12;;;;;;;;;17.25;16.50;;;;;;;;5108910;27;10563;-77
2023/10/12 07:59:38;;;;;;;;;21.00;17.50;;;;;;;;5123400;27;10764;-78
2023/10/12 08:02:08;;;;;;;;;26.75;21.00;;;;;;;;5123850;27;8780;-77
2023/10/12 08:04:33;;;;;;;;;20.50;16.75;;;;;;;;5125384;27;10984;-76
2023/10/12 08:07:06;;;;;;;;;20.50;16.75;;;;;;;;5123370;27;10723;-77
2023/10/12 08:11:57;;;;;;;;;18.25;17.75;;;;;;;;5123000;28;10423;-76
2023/10/12 08:17:25;;;;;;;;;30.25;22.25;;;;;;;;5123449;28;8878;-77
2023/10/12 08:19:39;;;;;;;;;28.50;23.00;;;;;;;;5123750;28;9828;-77
2023/10/12 08:22:09;;;;;;;;;22.75;21.00;;;;;;;;5123530;27;11275;-77
2023/10/12 08:24:36;;;;;;;;;19.00;19.00;;;;;;;;5123815;27;10603;-79
2023/10/12 08:27:05;;;;;;;;;19.50;18.00;;;;;;;;5123513;27;10422;-77
2023/10/12 08:39:38;;;;;;;;;15.75;14.00;;;;;;;;5122944;27;10565;-77
2023/10/12 08:45:09;;;;;;;;;20.75;15.75;;;;;;;;5088065;27;10601;-77
2023/10/12 08:50:05;;;;;;;;;16.75;16.75;;;;;;;;5122845;28;10292;-78
2023/10/12 08:52:31;;;;;;;;;15.25;12.75;;;;;;;;5121411;28;9917;-78
2023/10/12 08:55:07;;;;;;;;;16.75;14.25;;;;;;;;5122063;28;10416;-79
2023/10/12 08:57:42;;;;;;;;;16.25;14.00;;;;;;;;5122317;27;10228;-78
2023/10/12 09:00:24;;;;;;;;;17.50;17.50;;;;;;;;5121338;28;10362;-76
2023/10/12 09:02:54;;;;;;;;;21.00;15.75;;;;;;;;5121634;27;10270;-75
2023/10/12 09:05:33;;;;;;;;;17.50;15.75;;;;;;;;5120350;28;10674;-74
2023/10/12 09:10:48;;;;;;;;;15.50;12.75;;;;;;;;5122171;27;10197;-75
2023/10/12 09:13:17;;;;;;;;;16.50;15.50;;;;;;;;5123858;27;10422;-76
2023/10/12 09:15:45;;;;;;;;;14.75;14.00;;;;;;;;5121099;28;10622;-75
2023/10/12 09:18:12;;;;;;;;;18.00;18.00;;;;;;;;5121609;27;10269;-76
2023/10/12 09:20:41;;;;;;;;;26.50;18.00;;;;;;;;5122744;27;10446;-75
2023/10/12 09:23:12;;;;;;;;;17.00;17.00;;;;;;;;5124116;27;10401;-76
2023/10/12 09:25:59;;;;;;;;;16.25;15.00;;;;;;;;5122710;27;10547;-76
2023/10/12 09:28:26;;;;;;;;;18.75;12.75;;;;;;;;5122533;27;10112;-76
2023/10/12 09:30:52;;;;;;;;;21.50;18.00;;;;;;;;5122753;27;10103;-78
2023/10/12 09:36:02;;;;;;;;;21.00;17.50;;;;;;;;5142788;27;8781;-76
2023/10/12 09:38:38;;;;;;;;;17.50;15.75;;;;;;;;5134411;27;10410;-78
2023/10/12 09:41:03;;;;;;;;;19.75;17.50;;;;;;;;5122216;28;8901;-78
2023/10/12 09:43:33;;;;;;;;;14.75;11.00;;;;;;;;5121632;27;10279;-77
2023/10/12 09:46:06;;;;;;;;;21.50;16.00;;;;;;;;5120488;28;10094;-76
2023/10/12 09:48:38;;;;;;;;;17.75;15.75;;;;;;;;5120181;28;10369;-80
2023/10/12 09:51:06;;;;;;;;;15.75;15.75;;;;;;;;5119330;28;10859;-82
2023/10/12 09:53:38;;;;;;;;;17.75;17.25;;;;;;;;5121968;28;10436;-78
2023/10/12 09:56:15;;;;;;;;;20.50;15.50;;;;;;;;5121350;27;10427;-77
2023/10/12 10:02:27;;;;;;;;;23.00;18.50;;;;;;;;5119969;28;10338;-77
2023/10/12 10:06:55;;;;;;;;;21.00;16.00;;;;;;;;5121506;27;10596;-76
2023/10/12 10:09:36;;;;;;;;;19.75;16.50;;;;;;;;5122262;27;10307;-77
2023/10/12 10:12:04;;;;;;;;;19.00;16.50;;;;;;;;5120522;28;10010;-75
2023/10/12 10:14:37;;;;;;;;;23.50;17.25;;;;;;;;5121059;28;10335;-79
2023/10/12 10:17:07;;;;;;;;;21.00;19.00;;;;;;;;5121063;27;10244;-81
2023/10/12 10:19:33;;;;;;;;;22.50;20.25;;;;;;;;5119620;27;10230;-77
2023/10/12 10:22:16;;;;;;;;;19.00;17.00;;;;;;;;5122923;28;10228;-77
2023/10/12 10:24:45;;;;;;;;;21.75;19.00;;;;;;;;5124942;28;9888;-80
2023/10/12 10:27:11;;;;;;;;;18.50;15.25;;;;;;;;5124676;27;10359;-78
2023/10/12 10:29:53;;;;;;;;;27.25;15.25;;;;;;;;5124921;27;10214;-78
2023/10/12 10:32:39;;;;;;;;;25.00;17.50;;;;;;;;5123712;28;8771;-79
2023/10/12 10:35:13;;;;;;;;;17.00;14.50;;;;;;;;5123831;27;10242;-83
2023/10/12 10:37:57;;;;;;;;;14.00;12.75;;;;;;;;5126279;27;10545;-82
2023/10/12 10:40:39;;;;;;;;;22.00;18.50;;;;;;;;5126731;28;9848;-78
2023/10/12 10:43:08;;;;;;;;;15.75;14.25;;;;;;;;5124075;28;10262;-79
2023/10/12 10:45:37;;;;;;;;;15.50;12.25;;;;;;;;5125112;27;10387;-77
2023/10/12 10:48:03;;;;;;;;;17.50;14.50;;;;;;;;5126116;28;10359;-75
2023/10/12 10:50:33;;;;;;;;;14.25;12.50;;;;;;;;5129037;28;10112;-78
2023/10/12 10:52:59;;;;;;;;;15.50;14.50;;;;;;;;5124534;27;11497;-82
2023/10/12 10:55:26;;;;;;;;;20.50;16.75;;;;;;;;5123125;28;10166;-81
2023/10/12 10:57:53;;;;;;;;;17.25;12.50;;;;;;;;5124804;27;10330;-82
2023/10/12 11:00:22;;;;;;;;;14.75;11.75;;;;;;;;5124689;28;10331;-81
2023/10/12 11:02:56;;;;;;;;;16.00;13.25;;;;;;;;5131022;27;9858;-81
2023/10/12 11:05:28;;;;;;;;;17.00;15.75;;;;;;;;5124758;28;10258;-84
2023/10/12 11:07:54;;;;;;;;;19.00;16.50;;;;;;;;5124139;27;10287;-78
2023/10/12 11:10:23;;;;;;;;;17.25;15.25;;;;;;;;5123457;27;10925;-76
2023/10/12 11:12:48;;;;;;;;;18.25;13.00;;;;;;;;5122179;27;8791;-84
2023/10/12 11:15:14;;;;;;;;;19.25;16.25;;;;;;;;5123771;27;10086;-78
2023/10/12 11:17:41;;;;;;;;;18.00;14.25;;;;;;;;5122681;27;9678;-78
2023/10/12 11:20:08;;;;;;;;;15.00;13.75;;;;;;;;5123189;28;10314;-77
2023/10/12 11:22:42;;;;;;;;;20.50;17.00;;;;;;;;5123097;27;10011;-78
2023/10/12 11:25:15;;;;;;;;;18.75;16.25;;;;;;;;5123204;27;10076;-77
2023/10/12 11:27:42;;;;;;;;;16.25;15.00;;;;;;;;5121323;28;10318;-78
2023/10/12 11:30:07;;;;;;;;;18.50;16.00;;;;;;;;5123271;27;10224;-77
2023/10/12 11:32:51;;;;;;;;;16.50;15.50;;;;;;;;5122559;27;8849;-77
2023/10/12 11:35:16;;;;;;;;;19.25;16.25;;;;;;;;5123997;28;8736;-77
2023/10/12 11:37:41;;;;;;;;;15.75;15.50;;;;;;;;5121021;28;10530;-82
2023/10/12 11:40:07;;;;;;;;;22.75;17.75;;;;;;;;5124016;27;8913;-81
2023/10/12 11:42:32;;;;;;;;;17.75;13.75;;;;;;;;5121930;28;8834;-81
2023/10/12 11:45:06;;;;;;;;;15.25;13.25;;;;;;;;5123810;27;8803;-81
2023/10/12 11:47:37;;;;;;;;;16.25;13.50;;;;;;;;5121847;28;10035;-82
2023/10/12 11:50:03;;;;;;;;;18.50;16.00;;;;;;;;5123274;27;9831;-81
2023/10/12 11:52:30;;;;;;;;;19.25;17.25;;;;;;;;5123937;27;10030;-81
2023/10/12 11:55:01;;;;;;;;;18.25;16.25;;;;;;;;5123808;27;8775;-81
2023/10/12 11:57:27;;;;;;;;;20.50;18.00;;;;;;;;5123676;28;10159;-81
2023/10/12 11:59:52;;;;;;;;;16.25;13.50;;;;;;;;5123802;27;9926;-81
2023/10/12 12:02:18;;;;;;;;;17.75;16.50;;;;;;;;5123258;27;8807;-80
2023/10/12 12:04:44;;;;;;;;;16.75;15.25;;;;;;;;5123630;28;8791;-81
2023/10/12 12:07:10;;;;;;;;;15.50;15.50;;;;;;;;5124009;27;8771;-80
2023/10/12 12:09:39;;;;;;;;;17.25;15.00;;;;;;;;5123962;27;9990;-81
2023/10/12 12:12:07;;;;;;;;;19.00;15.25;;;;;;;;5121748;28;10128;-80
2023/10/12 12:14:33;;;;;;;;;21.00;19.75;;;;;;;;5120767;28;10164;-81
2023/10/12 12:16:58;;;;;;;;;17.00;16.75;;;;;;;;5121644;28;10267;-80
2023/10/12 12:19:24;;;;;;;;;18.00;14.25;;;;;;;;5123765;28;8819;-80
2023/10/12 12:21:49;;;;;;;;;17.75;16.00;;;;;;;;5123915;27;8743;-81
2023/10/12 12:24:22;;;;;;;;;18.50;14.50;;;;;;;;5123835;27;10067;-81
2023/10/12 12:26:49;;;;;;;;;17.50;14.00;;;;;;;;5122905;27;8787;-80
2023/10/12 12:29:16;;;;;;;;;18.25;15.00;;;;;;;;5123532;27;9955;-81
2023/10/12 12:31:41;;;;;;;;;18.00;14.25;;;;;;;;5123954;27;9959;-80
2023/10/12 12:34:06;;;;;;;;;12.50;11.00;;;;;;;;5122767;27;9866;-79
2023/10/12 12:36:32;;;;;;;;;17.25;17.00;;;;;;;;5123665;28;8814;-80
2023/10/12 12:39:00;;;;;;;;;15.50;13.50;;;;;;;;5121638;28;8815;-80
2023/10/12 12:41:30;;;;;;;;;18.25;11.50;;;;;;;;5123233;27;8736;-80
2023/10/12 12:43:59;;;;;;;;;14.75;13.50;;;;;;;;5120932;28;9680;-80
2023/10/12 12:46:24;;;;;;;;;13.75;12.50;;;;;;;;5120390;28;10093;-80
2023/10/12 12:48:50;;;;;;;;;13.75;13.75;;;;;;;;5121202;28;9840;-80
2023/10/12 12:51:19;;;;;;;;;17.50;13.50;;;;;;;;5122286;28;8831;-80
2023/10/12 12:53:46;;;;;;;;;15.00;12.75;;;;;;;;5125718;27;8828;-81
2023/10/12 12:56:14;;;;;;;;;14.25;12.25;;;;;;;;5123239;27;9831;-80
2023/10/12 12:58:44;;;;;;;;;12.50;10.75;;;;;;;;5123767;27;9576;-79
2023/10/12 13:01:10;;;;;;;;;14.75;11.50;;;;;;;;5126492;27;9744;-81
2023/10/12 13:03:35;;;;;;;;;11.00;10.00;;;;;;;;5135801;27;9707;-83
2023/10/12 13:06:07;;;;;;;;;12.00;9.00;;;;;;;;5123076;28;10127;-81
2023/10/12 13:08:33;;;;;;;;;6.33;6.33;;;;;;;;5123355;28;8727;-82
2023/10/12 13:10:59;;;;;;;;;9.00;9.00;;;;;;;;5141782;27;9345;-81
2023/10/12 13:13:24;;;;;;;;;12.25;8.50;;;;;;;;5141886;27;9658;-81
2023/10/12 13:15:50;;;;;;;;;11.33;8.33;;;;;;;;5142799;27;10060;-81
2023/10/12 13:18:15;;;;;;;;;13.00;12.50;;;;;;;;5143316;27;8816;-81
2023/10/12 13:20:46;;;;;;;;;13.00;9.25;;;;;;;;5144089;27;8902;-82
2023/10/12 13:23:13;;;;;;;;;12.67;11.00;;;;;;;;5142215;27;8785;-81
2023/10/12 13:25:38;;;;;;;;;10.25;9.50;;;;;;;;5144004;27;9686;-82
2023/10/12 13:28:03;;;;;;;;;11.25;10.75;;;;;;;;5143345;27;9734;-81
2023/10/12 13:30:30;;;;;;;;;10.67;8.33;;;;;;;;5143539;27;9619;-81
2023/10/12 13:32:59;;;;;;;;;12.00;9.75;;;;;;;;5141519;27;8725;-81
2023/10/12 13:35:41;;;;;;;;;11.50;9.75;;;;;;;;5140704;27;9788;-81
2023/10/12 13:38:09;;;;;;;;;12.00;10.67;;;;;;;;5127658;27;10494;-81
2023/10/12 13:40:43;;;;;;;;;13.33;8.00;;;;;;;;5133917;27;9479;-81
2023/10/12 13:43:15;;;;;;;;;7.67;7.67;;;;;;;;5128771;27;9468;-81
2023/10/12 13:45:41;;;;;;;;;11.33;10.00;;;;;;;;5131523;27;9664;-82
2023/10/12 13:48:10;;;;;;;;;12.75;9.25;;;;;;;;5131202;27;10165;-81
2023/10/12 13:50:37;;;;;;;;;10.00;9.00;;;;;;;;5132007;27;9429;-81
2023/10/12 13:53:02;;;;;;;;;15.50;10.00;;;;;;;;5133578;27;9428;-81
2023/10/12 13:55:27;;;;;;;;;11.50;8.75;;;;;;;;5139814;27;9643;-81
2023/10/12 13:57:56;;;;;;;;;8.00;6.25;;;;;;;;5134212;27;8811;-80
2023/10/12 14:00:33;;;;;;;;;12.25;9.75;;;;;;;;5135035;27;8874;-81
2023/10/12 14:03:10;;;;;;;;;8.75;8.00;;;;;;;;5132186;27;9532;-80
2023/10/12 14:05:40;;;;;;;;;10.67;6.67;;;;;;;;5140945;27;10813;-81
2023/10/12 14:08:05;;;;;;;;;13.25;10.50;;;;;;;;5130910;27;9582;-82
2023/10/12 14:10:31;;;;;;;;;11.00;8.67;;;;;;;;5128278;27;9656;-83
2023/10/12 14:12:59;;;;;;;;;12.50;10.75;;;;;;;;5140826;27;8749;-80
2023/10/12 14:15:28;;;;;;;;;10.67;10.67;;;;;;;;5142120;27;9850;-81
2023/10/12 14:17:56;;;;;;;;;10.00;7.00;;;;;;;;5136562;27;9349;-81
2023/10/12 14:20:26;;;;;;;;;11.75;10.00;;;;;;;;5132713;27;9504;-81
2023/10/12 14:22:58;;;;;;;;;10.33;9.00;;;;;;;;5134955;27;9553;-81
2023/10/12 14:25:27;;;;;;;;;12.25;9.50;;;;;;;;5133845;27;9719;-82
2023/10/12 14:27:53;;;;;;;;;9.67;8.67;;;;;;;;5136319;27;9748;-81
2023/10/12 14:30:25;;;;;;;;;10.25;9.25;;;;;;;;5141989;27;9510;-81
2023/10/12 14:32:50;;;;;;;;;13.50;11.50;;;;;;;;5130245;27;8795;-80
2023/10/12 14:35:15;;;;;;;;;14.00;8.00;;;;;;;;5136129;27;9958;-80
2023/10/12 14:37:41;;;;;;;;;14.25;11.25;;;;;;;;5136214;27;8803;-81
2023/10/12 14:40:11;;;;;;;;;12.00;8.25;;;;;;;;5134624;27;8815;-81
2023/10/12 14:42:42;;;;;;;;;13.25;10.50;;;;;;;;5141814;27;8744;-80
2023/10/12 14:45:08;;;;;;;;;7.67;7.00;;;;;;;;5144757;27;9825;-81
2023/10/12 14:47:35;;;;;;;;;9.67;9.00;;;;;;;;5137979;27;9654;-80
2023/10/12 14:50:03;;;;;;;;;10.00;9.00;;;;;;;;5132622;27;9531;-80
2023/10/12 14:52:31;;;;;;;;;5.33;5.33;;;;;;;;5124765;27;9390;-84
2023/10/12 14:54:57;;;;;;;;;7.67;7.67;;;;;;;;5125333;27;9447;-80
2023/10/12 14:57:24;;;;;;;;;11.00;6.00;;;;;;;;5123871;28;9280;-82
2023/10/12 14:59:50;;;;;;;;;8.33;6.00;;;;;;;;5125517;28;9214;-81
2023/10/12 15:02:15;;;;;;;;;6.00;5.00;;;;;;;;5125215;28;9421;-81
2023/10/12 15:04:42;;;;;;;;;5.33;5.00;;;;;;;;5124182;28;8858;-81
2023/10/12 15:07:09;;;;;;;;;6.00;4.67;;;;;;;;5125183;28;8879;-81
2023/10/12 15:09:35;;;;;;;;;8.00;7.00;;;;;;;;5122041;28;9327;-81
2023/10/12 15:12:05;;;;;;;;;5.67;4.33;;;;;;;;5125325;28;9136;-82
2023/10/12 15:14:31;;;;;;;;;5.67;5.00;;;;;;;;5123064;28;10145;-85
2023/10/12 15:16:56;;;;;;;;;4.00;3.00;;;;;;;;5129088;27;9068;-82
2023/10/12 15:19:22;;;;;;;;;6.00;5.00;;;;;;;;5124777;28;8823;-80
2023/10/12 15:21:48;;;;;;;;;6.33;5.33;;;;;;;;5124523;28;8786;-78
2023/10/12 15:24:14;;;;;;;;;4.00;4.00;;;;;;;;5123441;28;8787;-79
2023/10/12 15:26:40;;;;;;;;;5.00;5.00;;;;;;;;5122188;28;9151;-78
2023/10/12 15:29:08;;;;;;;;;7.33;6.00;;;;;;;;5124283;28;8831;-79
2023/10/12 15:31:33;;;;;;;;;6.00;5.67;;;;;;;;5124317;28;8779;-78
2023/10/12 15:33:59;;;;;;;;;6.00;4.67;;;;;;;;5124079;28;9434;-78
2023/10/12 15:36:25;;;;;;;;;5.00;5.00;;;;;;;;5124432;28;8783;-79
2023/10/12 15:38:51;;;;;;;;;7.00;6.00;;;;;;;;5126158;27;8812;-79
2023/10/12 15:41:17;;;;;;;;;8.33;6.00;;;;;;;;5130830;27;9252;-79
2023/10/12 15:43:42;;;;;;;;;7.00;5.00;;;;;;;;5132878;27;9334;-78
2023/10/12 15:46:11;;;;;;;;;5.00;4.00;;;;;;;;5135577;27;8801;-79
2023/10/12 15:48:36;;;;;;;;;8.00;6.33;;;;;;;;5128930;27;8755;-80
2023/10/12 15:51:02;;;;;;;;;6.00;5.00;;;;;;;;5133928;27;9218;-80
2023/10/12 15:53:27;;;;;;;;;4.67;4.67;;;;;;;;5134643;27;8792;-81
2023/10/12 15:55:52;;;;;;;;;6.00;4.33;;;;;;;;5132495;27;8816;-81
2023/10/12 15:58:18;;;;;;;;;1.33;1.00;;;;;;;;5137258;27;8825;-81
2023/10/12 16:00:45;;;;;;;;;6.67;5.33;;;;;;;;5132419;27;8901;-81
2023/10/12 16:03:10;;;;;;;;;4.00;4.00;;;;;;;;5130851;27;12301;-82
2023/10/12 16:05:36;;;;;;;;;3.00;3.00;;;;;;;;5136962;27;9198;-82
2023/10/12 16:08:02;;;;;;;;;3.33;3.00;;;;;;;;5133693;27;8929;-82
2023/10/12 16:10:28;;;;;;;;;1.67;1.67;;;;;;;;5142250;27;8773;-81
2023/10/12 16:12:57;;;;;;;;;4.67;4.67;;;;;;;;5132808;27;9272;-81
2023/10/12 16:15:27;;;;;;;;;6.00;3.00;;;;;;;;5125304;27;8774;-81
2023/10/12 16:17:53;;;;;;;;;3.67;3.67;;;;;;;;5134969;27;9063;-79
2023/10/12 16:20:18;;;;;;;;;3.00;3.00;;;;;;;;5129862;27;9076;-81
2023/10/12 16:22:46;;;;;;;;;3.00;3.00;;;;;;;;5129709;27;8899;-81
2023/10/12 16:25:12;;;;;;;;;3.00;3.00;;;;;;;;5159800;27;9260;-81
2023/10/12 16:27:38;;;;;;;;;3.33;3.33;;;;;;;;5132358;27;9152;-82
2023/10/12 16:30:04;;;;;;;;;4.00;3.67;;;;;;;;5130655;27;9162;-80
2023/10/12 16:32:30;;;;;;;;;7.00;4.67;;;;;;;;5120574;27;9425;-80
2023/10/12 16:34:55;;;;;;;;;4.00;3.67;;;;;;;;5126058;27;8858;-82
2023/10/12 16:37:20;;;;;;;;;5.33;4.00;;;;;;;;5128306;27;8804;-81
2023/10/12 16:39:45;;;;;;;;;2.00;2.00;;;;;;;;5132196;27;8830;-82
2023/10/12 16:42:10;;;;;;;;;3.00;3.00;;;;;;;;5127929;27;8799;-85
2023/10/12 16:44:36;;;;;;;;;5.00;3.00;;;;;;;;5120078;27;8925;-80
2023/10/12 16:47:02;;;;;;;;;3.00;3.00;;;;;;;;5122404;27;8853;-85
2023/10/12 16:49:31;;;;;;;;;4.00;4.00;;;;;;;;5143281;27;8817;-85
2023/10/12 16:51:57;;;;;;;;;4.00;3.00;;;;;;;;5126746;27;9678;-85